Weather at London Heathrow Airport

Public forecast

Using degrees Celsius for public forecast. Weather courtesy of forecast.io.

Current aviation weather report (METAR) for London Heathrow Airport

Retrieved 2021/05/12 16:50 UTC (13 minutes ago):

EGLL 121650Z AUTO 17008KT 9999 NCD 15/03 Q1008 NOSIG

Aviation forecast (TAF) for London Heathrow Airport

Retrieved 2021/05/12 12:00 UTC (5 hours ago):

TAF EGLL 121053Z 1212/1318 20010KT 9999 SCT040 PROB30 TEMPO 1212/1215 7000 SHRA BECMG 1218/1221 10007KT PROB30 TEMPO 1300/1312 8000 -RA PROB40 TEMPO 1312/1318 7000 SHRA BKN014